createdAt,value
2023-02-17T00:01:35.217Z,4.85
2023-02-17T00:04:02.751Z,5.05
2023-02-17T00:06:32.636Z,5.13
2023-02-17T00:09:00.721Z,5.13
2023-02-17T00:11:28.632Z,5.10
2023-02-17T00:13:56.692Z,5.03
2023-02-17T00:16:26.396Z,4.94
2023-02-17T00:18:56.546Z,5.00
2023-02-17T00:21:25.811Z,4.97
2023-02-17T00:23:53.944Z,5.03
2023-02-17T00:26:21.340Z,5.09
2023-02-17T00:28:49.032Z,5.03
2023-02-17T00:31:19.303Z,5.14
2023-02-17T00:33:46.530Z,5.25
2023-02-17T00:36:18.141Z,5.45
2023-02-17T00:38:45.712Z,5.53
2023-02-17T00:41:13.395Z,5.85
2023-02-17T00:43:40.684Z,6.09
2023-02-17T00:46:08.425Z,6.27
2023-02-17T00:48:37.874Z,6.47
2023-02-17T00:51:05.530Z,6.49
2023-02-17T00:53:32.481Z,6.54
2023-02-17T00:56:00.114Z,6.69
2023-02-17T00:58:27.227Z,6.68
2023-02-17T01:00:58.515Z,6.73
2023-02-17T01:03:26.823Z,6.75
2023-02-17T01:05:55.224Z,6.77
2023-02-17T01:08:25.830Z,6.82
2023-02-17T01:10:53.268Z,6.91
2023-02-17T01:13:22.892Z,6.95
2023-02-17T01:15:54.757Z,6.93
2023-02-17T01:18:26.262Z,6.97
2023-02-17T01:20:53.338Z,6.97
2023-02-17T01:23:20.299Z,7.03
2023-02-17T01:25:51.136Z,6.99
2023-02-17T01:28:21.354Z,6.99
2023-02-17T01:30:50.849Z,7.10
2023-02-17T01:33:22.303Z,7.23
2023-02-17T01:35:49.952Z,7.29
2023-02-17T01:38:17.601Z,7.30
2023-02-17T01:40:48.620Z,7.34
2023-02-17T01:43:18.072Z,7.35
2023-02-17T01:45:56.270Z,7.36
2023-02-17T01:48:29.890Z,7.36
2023-02-17T01:51:03.834Z,7.36
2023-02-17T01:54:01.479Z,7.37
2023-02-17T01:56:30.366Z,7.43
2023-02-17T01:59:12.718Z,7.47
2023-02-17T02:01:40.147Z,7.44
2023-02-17T02:04:08.199Z,7.39
2023-02-17T02:06:36.952Z,7.44
2023-02-17T02:09:20.953Z,7.42
2023-02-17T02:11:49.688Z,7.43
2023-02-17T02:14:17.374Z,7.43
2023-02-17T02:17:07.807Z,7.46
2023-02-17T02:20:09.090Z,7.45
2023-02-17T02:23:04.039Z,7.48
2023-02-17T02:25:40.702Z,7.45
2023-02-17T02:28:43.309Z,7.42
2023-02-17T02:31:42.890Z,7.48
2023-02-17T02:34:22.154Z,7.53
2023-02-17T02:37:01.153Z,7.54
2023-02-17T02:39:34.645Z,7.51
2023-02-17T02:42:05.289Z,7.57
2023-02-17T02:44:33.167Z,7.59
2023-02-17T02:47:06.023Z,7.55
2023-02-17T02:49:35.604Z,7.54
2023-02-17T02:52:17.852Z,7.63
2023-02-17T02:54:57.841Z,7.69
2023-02-17T02:57:59.752Z,7.67
2023-02-17T03:01:01.582Z,7.73
2023-02-17T03:03:36.324Z,7.70
2023-02-17T03:06:08.732Z,7.71
2023-02-17T03:08:39.526Z,7.71
2023-02-17T03:11:06.882Z,7.73
2023-02-17T03:13:38.191Z,7.75
2023-02-17T03:16:06.632Z,7.75
2023-02-17T03:18:34.262Z,7.74
2023-02-17T03:21:07.487Z,7.75
2023-02-17T03:23:34.334Z,7.70
2023-02-17T03:26:01.050Z,7.65
2023-02-17T03:28:27.720Z,7.71
2023-02-17T03:30:54.872Z,7.73
2023-02-17T03:33:21.852Z,7.83
2023-02-17T03:35:48.528Z,7.90
2023-02-17T03:38:16.087Z,7.84
2023-02-17T03:40:42.738Z,7.86
2023-02-17T03:43:09.496Z,7.85
2023-02-17T03:45:37.951Z,7.81
2023-02-17T03:48:04.992Z,7.86
2023-02-17T03:50:32.203Z,7.81
2023-02-17T03:52:58.861Z,7.82
2023-02-17T03:55:25.623Z,7.88
2023-02-17T03:57:52.648Z,7.87
2023-02-17T04:00:19.935Z,7.86
2023-02-17T04:02:46.577Z,7.89
2023-02-17T04:05:13.355Z,8.02
2023-02-17T04:07:40.334Z,7.99
2023-02-17T04:10:09.502Z,8.00
2023-02-17T04:12:36.383Z,8.03
2023-02-17T04:15:03.288Z,7.98
2023-02-17T04:17:29.992Z,7.96
2023-02-17T04:19:56.946Z,8.03
2023-02-17T04:22:23.628Z,8.01
2023-02-17T04:24:50.348Z,8.05
2023-02-17T04:27:17.108Z,8.06
2023-02-17T04:29:44.187Z,8.06
2023-02-17T04:32:10.996Z,8.04
2023-02-17T04:34:37.856Z,8.11
2023-02-17T04:37:04.687Z,8.07
2023-02-17T04:39:31.685Z,8.10
2023-02-17T04:41:58.968Z,8.14
2023-02-17T04:44:25.788Z,8.15
2023-02-17T04:46:52.434Z,8.10
2023-02-17T04:49:19.313Z,8.08
2023-02-17T04:51:46.342Z,8.13
2023-02-17T04:54:12.999Z,8.15
2023-02-17T04:56:39.647Z,8.17
2023-02-17T04:59:06.341Z,8.13
2023-02-17T05:01:33.389Z,8.24
2023-02-17T05:04:00.105Z,8.20
2023-02-17T05:06:26.807Z,8.25
2023-02-17T05:08:54.391Z,8.25
2023-02-17T05:11:21.083Z,8.32
2023-02-17T05:13:47.763Z,8.27
2023-02-17T05:16:14.967Z,8.26
2023-02-17T05:18:42.279Z,8.32
2023-02-17T05:21:09.099Z,8.31
2023-02-17T05:23:41.385Z,8.21
2023-02-17T05:26:11.608Z,8.27
2023-02-17T05:28:38.562Z,8.41
2023-02-17T05:31:05.661Z,8.34
2023-02-17T05:33:32.717Z,8.33
2023-02-17T05:36:04.548Z,8.27
2023-02-17T05:38:31.654Z,8.39
2023-02-17T05:40:58.590Z,8.56
2023-02-17T05:43:25.656Z,8.53
2023-02-17T05:45:52.401Z,8.58
2023-02-17T05:48:19.449Z,8.63
2023-02-17T05:50:46.617Z,8.61
2023-02-17T05:53:13.387Z,8.58
2023-02-17T05:55:40.383Z,8.67
2023-02-17T05:58:07.134Z,8.70
2023-02-17T06:00:33.943Z,8.75
2023-02-17T06:03:00.814Z,8.76
2023-02-17T06:05:27.807Z,8.69
2023-02-17T06:07:54.446Z,8.77
2023-02-17T06:10:21.602Z,8.71
2023-02-17T06:12:48.394Z,8.77
2023-02-17T06:15:15.359Z,8.81
2023-02-17T06:17:42.426Z,8.81
2023-02-17T06:20:09.854Z,8.84
2023-02-17T06:22:37.301Z,8.88
2023-02-17T06:25:04.268Z,8.87
2023-02-17T06:27:31.478Z,8.91
2023-02-17T06:29:58.174Z,8.93
2023-02-17T06:32:24.953Z,8.88
2023-02-17T06:34:51.886Z,8.91
2023-02-17T06:37:18.821Z,8.93
2023-02-17T06:39:45.515Z,8.96
2023-02-17T06:42:12.327Z,8.91
2023-02-17T06:44:39.757Z,8.95
2023-02-17T06:47:06.537Z,8.96
2023-02-17T06:49:33.264Z,9.00
2023-02-17T06:51:59.933Z,8.96
2023-02-17T06:54:26.871Z,9.07
2023-02-17T06:56:54.016Z,9.08
2023-02-17T06:59:21.224Z,8.95
2023-02-17T07:01:50.127Z,9.01
2023-02-17T07:04:16.961Z,9.00
2023-02-17T07:06:44.388Z,9.09
2023-02-17T07:09:13.941Z,9.10
2023-02-17T07:11:44.614Z,9.14
2023-02-17T07:14:11.565Z,9.12
2023-02-17T07:16:39.722Z,9.12
2023-02-17T07:19:06.684Z,9.19
2023-02-17T07:21:36.658Z,9.20
2023-02-17T07:24:04.918Z,9.30
2023-02-17T07:26:32.198Z,9.27
2023-02-17T07:28:59.647Z,9.29
2023-02-17T07:31:27.299Z,9.37
2023-02-17T07:33:54.183Z,9.35
2023-02-17T07:36:21.218Z,9.28
2023-02-17T07:38:48.746Z,9.41
2023-02-17T07:41:21.633Z,9.48
2023-02-17T07:43:49.763Z,9.46
2023-02-17T07:46:17.336Z,9.50
2023-02-17T07:48:44.725Z,9.54
2023-02-17T07:51:14.006Z,9.54
2023-02-17T07:53:40.999Z,9.57
2023-02-17T07:56:10.006Z,9.59
2023-02-17T07:58:38.467Z,9.69
2023-02-17T08:01:10.166Z,9.68
2023-02-17T08:03:37.870Z,9.74
2023-02-17T08:06:05.825Z,9.72
2023-02-17T08:08:53.016Z,9.71
2023-02-17T08:11:38.410Z,9.75
2023-02-17T08:14:05.853Z,9.73
2023-02-17T08:16:32.753Z,9.88
2023-02-17T08:18:59.600Z,9.93
2023-02-17T08:21:27.919Z,9.86
2023-02-17T08:23:55.743Z,9.88
2023-02-17T08:26:23.594Z,9.92
2023-02-17T08:28:50.897Z,9.97
2023-02-17T08:31:29.925Z,9.91
2023-02-17T08:33:57.088Z,9.99
2023-02-17T08:36:25.192Z,9.97
2023-02-17T08:38:53.952Z,10.00
2023-02-17T08:41:32.311Z,10.05
2023-02-17T08:44:01.081Z,10.01
2023-02-17T08:46:29.748Z,10.01
2023-02-17T08:48:57.035Z,10.05
2023-02-17T08:51:26.377Z,10.11
2023-02-17T08:53:55.672Z,10.10
2023-02-17T08:56:26.064Z,10.06
2023-02-17T08:58:53.517Z,10.09
2023-02-17T09:01:21.647Z,10.07
2023-02-17T09:03:50.146Z,10.09
2023-02-17T09:06:19.128Z,10.13
2023-02-17T09:08:46.569Z,10.21
2023-02-17T09:11:15.815Z,10.22
2023-02-17T09:13:45.320Z,10.17
2023-02-17T09:16:12.312Z,10.24
2023-02-17T09:18:39.301Z,10.24
2023-02-17T09:21:12.041Z,10.20
2023-02-17T09:23:39.243Z,10.25
2023-02-17T09:26:08.503Z,10.26
2023-02-17T09:28:36.967Z,10.26
2023-02-17T09:31:12.322Z,10.20
2023-02-17T09:33:41.072Z,10.28
2023-02-17T09:36:09.600Z,10.22
2023-02-17T09:38:40.582Z,10.21
2023-02-17T09:41:23.300Z,10.26
2023-02-17T09:43:54.955Z,10.25
2023-02-17T09:46:55.818Z,10.26
2023-02-17T09:49:33.634Z,10.32
2023-02-17T09:52:03.576Z,10.44
2023-02-17T09:55:09.322Z,10.45
2023-02-17T09:57:40.586Z,10.51
2023-02-17T10:00:18.203Z,10.54
2023-02-17T10:03:12.618Z,10.71
2023-02-17T10:05:44.624Z,10.99
2023-02-17T10:08:19.665Z,10.86
2023-02-17T10:10:53.614Z,10.92
2023-02-17T10:13:22.860Z,10.83
2023-02-17T10:15:53.137Z,10.87
2023-02-17T10:18:40.272Z,10.88
2023-02-17T10:21:13.435Z,10.93
2023-02-17T10:23:40.688Z,10.96
2023-02-17T10:26:16.993Z,11.00
2023-02-17T10:28:58.653Z,11.06
2023-02-17T10:32:04.146Z,11.01
2023-02-17T10:34:37.966Z,11.14
2023-02-17T10:37:17.455Z,11.10
2023-02-17T10:39:52.273Z,11.14
2023-02-17T10:42:35.875Z,11.15
2023-02-17T10:45:31.749Z,11.09
2023-02-17T10:48:14.817Z,11.19
2023-02-17T10:50:43.410Z,11.21
2023-02-17T10:53:23.184Z,11.19
2023-02-17T10:56:18.657Z,11.29
2023-02-17T10:59:11.153Z,11.26
2023-02-17T11:01:41.472Z,11.25
2023-02-17T11:04:19.949Z,11.33
2023-02-17T11:06:53.410Z,11.41
2023-02-17T11:12:47.803Z,11.40
2023-02-17T11:15:45.367Z,11.44
2023-02-17T11:18:27.580Z,11.49
2023-02-17T11:21:12.942Z,11.50
2023-02-17T11:24:15.156Z,11.50
2023-02-17T11:26:45.562Z,11.57
2023-02-17T11:29:18.530Z,11.51
2023-02-17T11:32:16.582Z,11.58
2023-02-17T11:34:44.412Z,11.64
2023-02-17T11:37:14.622Z,11.71
2023-02-17T11:39:49.754Z,11.75
2023-02-17T11:42:28.401Z,11.68
2023-02-17T11:45:00.705Z,11.72
2023-02-17T11:47:49.106Z,11.74
2023-02-17T11:50:41.561Z,11.84
2023-02-17T11:53:31.655Z,11.89
2023-02-17T11:56:20.264Z,11.94
2023-02-17T11:59:11.160Z,11.94
2023-02-17T12:01:50.646Z,12.00
2023-02-17T12:05:07.657Z,12.08
2023-02-17T12:08:00.317Z,12.15
2023-02-17T12:10:50.268Z,12.18
2023-02-17T12:13:56.999Z,12.25
2023-02-17T12:16:52.483Z,12.23
2023-02-17T12:19:48.314Z,12.21
2023-02-17T12:22:20.899Z,12.34
2023-02-17T12:25:09.785Z,12.36
2023-02-17T12:28:06.623Z,12.44
2023-02-17T12:30:41.888Z,12.50
2023-02-17T12:33:30.213Z,12.54
2023-02-17T12:36:02.000Z,12.65
2023-02-17T12:38:39.348Z,12.72
2023-02-17T12:41:11.203Z,12.79
2023-02-17T12:44:08.131Z,12.85
2023-02-17T12:46:40.555Z,12.93
2023-02-17T12:49:19.123Z,12.90
2023-02-17T12:51:54.434Z,12.89
2023-02-17T12:54:30.833Z,12.97
2023-02-17T12:57:57.364Z,12.86
2023-02-17T13:00:28.336Z,12.85
2023-02-17T13:03:03.221Z,12.93
2023-02-17T13:05:44.342Z,12.99
2023-02-17T13:08:16.926Z,13.03
2023-02-17T13:10:44.362Z,13.00
2023-02-17T13:13:14.648Z,13.07
2023-02-17T13:15:44.439Z,13.11
2023-02-17T13:18:50.018Z,13.16
2023-02-17T13:21:29.717Z,13.19
2023-02-17T13:24:02.344Z,13.30
2023-02-17T13:26:35.098Z,13.42
2023-02-17T13:29:22.583Z,13.53
2023-02-17T13:31:55.635Z,13.57
2023-02-17T13:34:35.111Z,13.58
2023-02-17T13:37:35.547Z,13.57
2023-02-17T13:40:16.532Z,13.63
2023-02-17T13:42:51.400Z,13.66
2023-02-17T13:45:40.093Z,13.69
2023-02-17T13:48:27.914Z,13.67
2023-02-17T13:51:05.925Z,13.71
2023-02-17T13:53:42.283Z,13.79
2023-02-17T13:56:24.272Z,13.82
2023-02-17T13:58:51.790Z,13.84
2023-02-17T14:01:25.790Z,13.88
2023-02-17T14:03:55.485Z,13.87
2023-02-17T14:06:28.746Z,13.90
2023-02-17T14:08:57.529Z,13.88
2023-02-17T14:11:29.459Z,13.88
2023-02-17T14:13:58.352Z,13.95
2023-02-17T14:16:30.565Z,13.96
2023-02-17T14:19:04.968Z,13.89
2023-02-17T14:21:32.281Z,13.92
2023-02-17T14:24:03.951Z,13.87
2023-02-17T14:26:42.939Z,13.90
2023-02-17T14:29:15.186Z,13.90
2023-02-17T14:31:46.778Z,13.89
2023-02-17T14:34:35.244Z,13.90
2023-02-17T14:37:22.566Z,14.02
2023-02-17T14:39:49.828Z,13.98
2023-02-17T14:42:33.898Z,14.06
2023-02-17T14:45:04.375Z,14.08
2023-02-17T14:47:33.873Z,14.10
2023-02-17T14:50:01.364Z,14.08
2023-02-17T14:52:28.702Z,14.11
2023-02-17T14:55:00.806Z,14.07
2023-02-17T14:57:28.584Z,14.05
2023-02-17T14:59:58.187Z,14.15
2023-02-17T15:02:25.287Z,14.06
2023-02-17T15:04:52.144Z,14.02
2023-02-17T15:07:23.920Z,14.02
2023-02-17T15:09:50.637Z,14.07
2023-02-17T15:12:21.180Z,14.09
2023-02-17T15:14:55.477Z,14.11
2023-02-17T15:17:22.150Z,14.04
2023-02-17T15:19:49.802Z,14.12
2023-02-17T15:22:16.858Z,14.08
2023-02-17T15:24:43.967Z,14.10
2023-02-17T15:27:13.642Z,14.03
2023-02-17T15:29:41.588Z,14.02
2023-02-17T15:32:21.677Z,14.03
2023-02-17T15:34:48.508Z,13.98
2023-02-17T15:37:15.588Z,14.05
2023-02-17T15:39:42.872Z,14.02
2023-02-17T15:42:13.843Z,13.94
2023-02-17T15:44:47.369Z,13.97
2023-02-17T15:47:17.674Z,13.96
2023-02-17T15:49:44.797Z,13.88
2023-02-17T15:52:13.619Z,13.92
2023-02-17T15:54:43.901Z,13.91
2023-02-17T15:57:21.292Z,13.93
2023-02-17T15:59:48.381Z,13.90
2023-02-17T16:02:22.068Z,13.91
2023-02-17T16:04:49.245Z,13.92
2023-02-17T16:07:16.535Z,13.88
2023-02-17T16:09:45.154Z,13.93
2023-02-17T16:12:18.616Z,13.91
2023-02-17T16:14:46.710Z,13.87
2023-02-17T16:17:17.869Z,13.84
2023-02-17T16:19:46.216Z,13.84
2023-02-17T16:22:13.882Z,13.87
2023-02-17T16:24:41.066Z,13.88
2023-02-17T16:27:11.137Z,13.93
2023-02-17T16:29:37.895Z,13.89
2023-02-17T16:32:04.825Z,13.85
2023-02-17T16:34:33.786Z,13.88
2023-02-17T16:37:08.046Z,13.88
2023-02-17T16:39:35.664Z,13.71
2023-02-17T16:42:02.989Z,13.60
2023-02-17T16:44:29.912Z,13.52
2023-02-17T16:46:57.351Z,13.40
2023-02-17T16:49:32.900Z,13.31
2023-02-17T16:52:02.117Z,13.21
2023-02-17T16:54:29.284Z,13.14
2023-02-17T16:56:56.485Z,13.07
2023-02-17T16:59:24.725Z,13.00
2023-02-17T17:01:53.457Z,12.91
2023-02-17T17:04:21.567Z,12.87
2023-02-17T17:06:50.593Z,12.83
2023-02-17T17:09:21.726Z,12.68
2023-02-17T17:11:49.157Z,12.72
2023-02-17T17:14:16.411Z,12.65
2023-02-17T17:16:50.705Z,12.56
2023-02-17T17:19:17.589Z,12.49
2023-02-17T17:21:44.487Z,12.46
2023-02-17T17:24:11.349Z,12.48
2023-02-17T17:26:41.761Z,12.43
2023-02-17T17:29:11.230Z,12.40
2023-02-17T17:31:38.422Z,12.41
2023-02-17T17:34:05.533Z,12.36
2023-02-17T17:36:41.337Z,12.35
2023-02-17T17:39:16.969Z,12.35
2023-02-17T17:41:44.801Z,12.38
2023-02-17T17:44:11.694Z,12.40
2023-02-17T17:46:44.478Z,12.40
2023-02-17T17:49:20.068Z,12.43
2023-02-17T17:51:55.879Z,12.46
2023-02-17T17:54:28.837Z,12.46
2023-02-17T17:57:01.445Z,12.45
2023-02-17T17:59:32.795Z,12.45
2023-02-17T18:01:59.732Z,12.50
2023-02-17T18:04:27.514Z,12.47
2023-02-17T18:06:55.584Z,12.50
2023-02-17T18:09:31.818Z,12.52
2023-02-17T18:12:03.855Z,12.53
2023-02-17T18:14:31.026Z,12.59
2023-02-17T18:16:58.382Z,12.60
2023-02-17T18:19:25.783Z,12.58
2023-02-17T18:21:52.658Z,12.67
2023-02-17T18:24:19.676Z,12.59
2023-02-17T18:26:46.862Z,12.53
2023-02-17T18:29:18.866Z,12.57
2023-02-17T18:31:46.008Z,12.50
2023-02-17T18:34:12.887Z,12.49
2023-02-17T18:36:39.651Z,12.47
2023-02-17T18:39:06.417Z,12.46
2023-02-17T18:41:38.426Z,12.55
2023-02-17T18:44:05.939Z,12.54
2023-02-17T18:46:33.776Z,12.45
2023-02-17T18:49:01.365Z,12.36
2023-02-17T18:51:32.560Z,12.37
2023-02-17T18:54:00.205Z,12.36
2023-02-17T18:56:29.666Z,12.30
2023-02-17T18:58:57.529Z,12.31
2023-02-17T19:01:30.548Z,12.33
2023-02-17T19:03:58.293Z,12.22
2023-02-17T19:06:28.725Z,12.22
2023-02-17T19:08:59.711Z,12.22
2023-02-17T19:11:27.108Z,12.09
2023-02-17T19:13:54.204Z,12.21
2023-02-17T19:16:24.612Z,12.16
2023-02-17T19:18:51.896Z,12.14
2023-02-17T19:21:19.080Z,12.18
2023-02-17T19:23:46.242Z,12.22
2023-02-17T19:26:14.234Z,12.18
2023-02-17T19:28:41.963Z,12.03
2023-02-17T19:31:14.638Z,12.08
2023-02-17T19:33:41.930Z,12.03
2023-02-17T19:36:14.525Z,12.02
2023-02-17T19:38:41.266Z,11.93
2023-02-17T19:41:10.275Z,12.15
2023-02-17T19:43:37.306Z,12.08
2023-02-17T19:46:04.810Z,12.06
2023-02-17T19:48:32.026Z,12.07
2023-02-17T19:51:01.315Z,12.02
2023-02-17T19:53:28.757Z,11.96
2023-02-17T19:55:55.503Z,11.90
2023-02-17T19:58:22.695Z,11.88
2023-02-17T20:00:49.816Z,11.93
2023-02-17T20:03:17.243Z,11.91
2023-02-17T20:05:44.121Z,11.87
2023-02-17T20:08:10.826Z,11.85
2023-02-17T20:10:40.064Z,11.82
2023-02-17T20:13:07.322Z,11.82
2023-02-17T20:15:34.466Z,11.81
2023-02-17T20:18:01.176Z,11.74
2023-02-17T20:20:27.890Z,11.79
2023-02-17T20:22:55.277Z,11.67
2023-02-17T20:25:21.933Z,11.61
2023-02-17T20:27:49.132Z,11.63
2023-02-17T20:30:15.935Z,11.61
2023-02-17T20:32:42.595Z,11.60
2023-02-17T20:35:13.243Z,11.52
2023-02-17T20:37:39.978Z,11.50
2023-02-17T20:40:07.568Z,11.41
2023-02-17T20:42:34.485Z,11.41
2023-02-17T20:45:01.591Z,11.46
2023-02-17T20:47:29.595Z,11.45
2023-02-17T20:49:56.264Z,11.41
2023-02-17T20:52:22.981Z,11.43
2023-02-17T20:54:49.898Z,11.40
2023-02-17T20:57:17.121Z,11.41
2023-02-17T20:59:43.853Z,11.35
2023-02-17T21:02:11.425Z,11.37
2023-02-17T21:04:38.173Z,11.40
2023-02-17T21:07:05.024Z,11.33
2023-02-17T21:09:31.860Z,11.35
2023-02-17T21:11:58.511Z,11.34
2023-02-17T21:14:25.508Z,11.38
2023-02-17T21:16:52.078Z,11.31
2023-02-17T21:19:20.062Z,11.27
2023-02-17T21:21:46.909Z,11.34
2023-02-17T21:24:14.214Z,11.36
2023-02-17T21:26:41.158Z,11.36
2023-02-17T21:29:08.285Z,11.42
2023-02-17T21:31:36.811Z,11.33
2023-02-17T21:34:08.702Z,11.38
2023-02-17T21:36:35.632Z,11.37
2023-02-17T21:39:05.261Z,11.37
2023-02-17T21:41:37.493Z,11.34
2023-02-17T21:44:23.302Z,11.36
2023-02-17T21:46:50.244Z,11.36
2023-02-17T21:49:17.124Z,11.38
2023-02-17T21:51:44.399Z,11.32
2023-02-17T21:54:11.698Z,11.39
2023-02-17T21:56:38.919Z,11.39
2023-02-17T21:59:06.094Z,11.41
2023-02-17T22:01:32.956Z,11.40
2023-02-17T22:03:59.926Z,11.34
2023-02-17T22:06:29.747Z,11.29
2023-02-17T22:08:57.967Z,11.31
2023-02-17T22:11:32.708Z,11.29
2023-02-17T22:14:02.320Z,11.37
2023-02-17T22:16:31.580Z,11.28
2023-02-17T22:19:02.729Z,11.31
2023-02-17T22:21:29.720Z,11.34
2023-02-17T22:23:58.717Z,11.31
2023-02-17T22:26:26.549Z,11.32
2023-02-17T22:28:53.904Z,11.32
2023-02-17T22:31:23.313Z,11.31
2023-02-17T22:33:50.055Z,11.31
2023-02-17T22:36:20.399Z,11.36
2023-02-17T22:38:47.940Z,11.29
2023-02-17T22:41:19.765Z,11.28
2023-02-17T22:43:48.276Z,11.29
2023-02-17T22:46:16.917Z,11.30
2023-02-17T22:48:45.674Z,11.30
2023-02-17T22:51:14.830Z,11.33
2023-02-17T22:53:42.369Z,11.31
2023-02-17T22:56:09.446Z,11.29
2023-02-17T22:58:37.071Z,11.37
2023-02-17T23:01:21.003Z,11.35
2023-02-17T23:03:54.310Z,11.27
2023-02-17T23:06:28.254Z,11.29
2023-02-17T23:08:56.002Z,11.28
2023-02-17T23:11:47.632Z,11.28
2023-02-17T23:14:15.495Z,11.28
2023-02-17T23:16:42.416Z,11.27
2023-02-17T23:19:11.216Z,11.19
2023-02-17T23:21:42.021Z,11.29
2023-02-17T23:24:09.889Z,11.28
2023-02-17T23:26:36.686Z,11.23
2023-02-17T23:29:03.687Z,11.29
2023-02-17T23:31:30.557Z,11.32
2023-02-17T23:33:57.346Z,11.25
2023-02-17T23:36:24.737Z,11.28
2023-02-17T23:38:51.742Z,11.23
2023-02-17T23:41:18.408Z,11.28
2023-02-17T23:43:45.043Z,11.30
2023-02-17T23:46:12.276Z,11.31
2023-02-17T23:48:39.157Z,11.27
2023-02-17T23:51:06.139Z,11.29
2023-02-17T23:53:33.780Z,11.26
2023-02-17T23:56:09.557Z,11.30
2023-02-17T23:58:36.824Z,11.34
